createdAt,value
2023-05-14T00:01:09.895Z,98699.19
2023-05-14T00:03:37.519Z,98695.84
2023-05-14T00:06:04.384Z,98709.22
2023-05-14T00:08:30.931Z,98700.41
2023-05-14T00:10:57.529Z,98716.16
2023-05-14T00:13:24.251Z,98707.34
2023-05-14T00:15:51.089Z,98693.88
2023-05-14T00:18:18.101Z,98706.63
2023-05-14T00:20:44.691Z,98713.19
2023-05-14T00:23:11.454Z,98678.03
2023-05-14T00:25:38.345Z,98698.41
2023-05-14T00:28:05.200Z,98690.34
2023-05-14T00:30:32.671Z,98673.22
2023-05-14T00:32:59.453Z,98694.03
2023-05-14T00:35:26.071Z,98676.53
2023-05-14T00:37:52.800Z,98696.56
2023-05-14T00:40:19.896Z,98696.00
2023-05-14T00:42:46.512Z,98699.47
2023-05-14T00:45:13.368Z,98679.69
2023-05-14T00:47:40.388Z,98695.75
2023-05-14T00:50:07.464Z,98691.84
2023-05-14T00:52:34.287Z,98683.94
2023-05-14T00:55:04.289Z,98669.63
2023-05-14T00:57:31.070Z,98683.09
2023-05-14T00:59:58.926Z,98683.84
2023-05-14T01:02:26.429Z,98692.53
2023-05-14T01:04:53.827Z,98680.72
2023-05-14T01:07:47.000Z,98688.00
2023-05-14T01:10:24.646Z,98689.59
2023-05-14T01:13:38.144Z,98678.81
2023-05-14T01:16:08.288Z,98669.22
2023-05-14T01:18:35.401Z,98677.78
2023-05-14T01:21:02.071Z,98660.13
2023-05-14T01:23:28.761Z,98667.97
2023-05-14T01:25:55.737Z,98647.41
2023-05-14T01:28:32.659Z,98641.97
2023-05-14T01:31:18.275Z,98657.97
2023-05-14T01:33:48.375Z,98667.28
2023-05-14T01:36:15.612Z,98667.97
2023-05-14T01:38:45.772Z,98659.41
2023-05-14T01:41:14.415Z,98648.66
2023-05-14T01:43:41.400Z,98659.91
2023-05-14T01:46:08.135Z,98663.41
2023-05-14T01:48:35.097Z,98663.34
2023-05-14T01:51:02.547Z,98629.06
2023-05-14T01:53:29.184Z,98667.28
2023-05-14T01:55:56.025Z,98646.72
2023-05-14T01:58:22.738Z,98646.31
2023-05-14T02:00:49.311Z,98637.88
2023-05-14T02:03:15.867Z,98623.56
2023-05-14T02:05:42.503Z,98645.41
2023-05-14T02:08:09.122Z,98632.28
2023-05-14T02:10:36.061Z,98614.34
2023-05-14T02:13:03.839Z,98618.50
2023-05-14T02:15:30.838Z,98624.56
2023-05-14T02:17:57.469Z,98626.31
2023-05-14T02:20:24.266Z,98626.78
2023-05-14T02:22:51.346Z,98626.56
2023-05-14T02:25:17.976Z,98626.03
2023-05-14T02:27:44.793Z,98636.00
2023-05-14T02:30:12.632Z,98623.94
2023-05-14T02:32:39.397Z,98618.16
2023-05-14T02:35:06.828Z,98631.81
2023-05-14T02:37:34.775Z,98605.69
2023-05-14T02:40:01.529Z,98623.72
2023-05-14T02:42:28.148Z,98603.13
2023-05-14T02:44:54.851Z,98588.16
2023-05-14T02:47:21.654Z,98596.44
2023-05-14T02:49:48.515Z,98604.16
2023-05-14T02:52:15.091Z,98579.47
2023-05-14T02:54:41.848Z,98602.72
2023-05-14T02:57:08.675Z,98605.19
2023-05-14T02:59:36.230Z,98606.84
2023-05-14T03:02:03.451Z,98601.19
2023-05-14T03:04:30.398Z,98595.34
2023-05-14T03:06:57.087Z,98594.09
2023-05-14T03:09:23.901Z,98604.66
2023-05-14T03:11:50.819Z,98602.53
2023-05-14T03:14:17.578Z,98590.91
2023-05-14T03:16:44.224Z,98597.50
2023-05-14T03:19:12.044Z,98591.69
2023-05-14T03:21:38.820Z,98587.75
2023-05-14T03:24:05.791Z,98582.16
2023-05-14T03:26:32.380Z,98564.72
2023-05-14T03:28:58.948Z,98572.22
2023-05-14T03:31:25.860Z,98571.16
2023-05-14T03:33:52.578Z,98583.88
2023-05-14T03:36:19.169Z,98578.28
2023-05-14T03:38:47.596Z,98585.06
2023-05-14T03:41:15.243Z,98586.44
2023-05-14T03:43:42.410Z,98563.41
2023-05-14T03:46:09.468Z,98566.56
2023-05-14T03:48:36.326Z,98577.34
2023-05-14T03:51:04.866Z,98569.00
2023-05-14T03:53:31.632Z,98575.75
2023-05-14T03:55:58.269Z,98574.31
2023-05-14T03:58:24.874Z,98569.13
2023-05-14T04:00:51.457Z,98552.88
2023-05-14T04:03:18.179Z,98561.38
2023-05-14T04:05:44.808Z,98563.81
2023-05-14T04:08:12.146Z,98562.56
2023-05-14T04:10:38.728Z,98574.16
2023-05-14T04:13:05.365Z,98557.41
2023-05-14T04:15:39.383Z,98574.03
2023-05-14T04:18:06.290Z,98571.34
2023-05-14T04:20:33.110Z,98553.91
2023-05-14T04:22:59.829Z,98559.97
2023-05-14T04:25:26.337Z,98564.25
2023-05-14T04:27:53.033Z,98565.75
2023-05-14T04:30:19.883Z,98569.25
2023-05-14T04:32:46.672Z,98564.84
2023-05-14T04:35:13.309Z,98577.81
2023-05-14T04:37:40.488Z,98571.53
2023-05-14T04:40:11.068Z,98567.00
2023-05-14T04:42:37.721Z,98580.53
2023-05-14T04:45:06.212Z,98584.72
2023-05-14T04:47:32.913Z,98573.78
2023-05-14T04:49:59.475Z,98578.81
2023-05-14T04:52:26.324Z,98574.72
2023-05-14T04:54:53.047Z,98576.13
2023-05-14T04:57:19.783Z,98565.97
2023-05-14T04:59:46.374Z,98573.25
2023-05-14T05:02:12.977Z,98568.72
2023-05-14T05:04:39.598Z,98565.00
2023-05-14T05:07:06.334Z,98584.34
2023-05-14T05:09:33.039Z,98579.59
2023-05-14T05:12:01.446Z,98575.28
2023-05-14T05:14:28.099Z,98576.75
2023-05-14T05:16:54.790Z,98584.22
2023-05-14T05:19:29.105Z,98584.66
2023-05-14T05:21:56.091Z,98589.44
2023-05-14T05:24:22.705Z,98590.06
2023-05-14T05:26:50.184Z,98583.50
2023-05-14T05:29:16.884Z,98596.34
2023-05-14T05:31:43.632Z,98585.16
2023-05-14T05:34:10.348Z,98583.94
2023-05-14T05:36:36.904Z,98593.91
2023-05-14T05:39:03.507Z,98585.41
2023-05-14T05:41:30.362Z,98580.44
2023-05-14T05:43:56.976Z,98582.72
2023-05-14T05:46:23.564Z,98598.53
2023-05-14T05:48:50.075Z,98606.19
2023-05-14T05:51:16.679Z,98587.53
2023-05-14T05:53:43.356Z,98584.84
2023-05-14T05:56:09.976Z,98591.91
2023-05-14T05:58:37.154Z,98575.56
2023-05-14T06:01:03.935Z,98590.81
2023-05-14T06:03:30.715Z,98584.41
2023-05-14T06:05:57.672Z,98594.97
2023-05-14T06:08:24.297Z,98596.41
2023-05-14T06:10:51.048Z,98578.53
2023-05-14T06:13:17.660Z,98601.16
2023-05-14T06:15:44.301Z,98594.47
2023-05-14T06:18:10.964Z,98583.22
2023-05-14T06:20:37.770Z,98551.72
2023-05-14T06:23:04.429Z,98584.97
2023-05-14T06:25:31.086Z,98595.97
2023-05-14T06:27:57.681Z,98593.91
2023-05-14T06:30:24.627Z,98595.38
2023-05-14T06:32:51.878Z,98592.69
2023-05-14T06:35:19.257Z,98601.00
2023-05-14T06:37:45.973Z,98592.28
2023-05-14T06:40:15.742Z,98603.31
2023-05-14T06:42:42.531Z,98605.56
2023-05-14T06:45:09.417Z,98601.00
2023-05-14T06:47:37.190Z,98602.66
2023-05-14T06:50:04.332Z,98589.13
2023-05-14T06:52:31.032Z,98602.41
2023-05-14T06:54:57.696Z,98608.19
2023-05-14T06:57:24.687Z,98600.94
2023-05-14T06:59:51.280Z,98585.97
2023-05-14T07:02:17.895Z,98595.56
2023-05-14T07:04:44.497Z,98598.31
2023-05-14T07:07:15.210Z,98600.03
2023-05-14T07:09:42.273Z,98578.06
2023-05-14T07:12:09.143Z,98566.47
2023-05-14T07:14:35.702Z,98588.69
2023-05-14T07:17:02.336Z,98581.84
2023-05-14T07:19:30.129Z,98579.50
2023-05-14T07:21:57.742Z,98590.78
2023-05-14T07:24:24.173Z,98590.28
2023-05-14T07:26:50.896Z,98590.06
2023-05-14T07:29:17.558Z,98581.59
2023-05-14T07:31:44.224Z,98583.09
2023-05-14T07:34:11.590Z,98585.84
2023-05-14T07:36:38.635Z,98582.22
2023-05-14T07:39:05.431Z,98572.22
2023-05-14T07:41:32.116Z,98564.38
2023-05-14T07:43:58.683Z,98546.22
2023-05-14T07:46:25.881Z,98535.75
2023-05-14T07:48:52.459Z,98538.56
2023-05-14T07:51:19.035Z,98536.19
2023-05-14T07:53:45.791Z,98513.66
2023-05-14T07:56:12.420Z,98549.53
2023-05-14T07:58:39.205Z,98542.13
2023-05-14T08:01:09.088Z,98546.53
2023-05-14T08:03:36.247Z,98545.88
2023-05-14T08:06:04.104Z,98554.06
2023-05-14T08:08:30.822Z,98540.94
2023-05-14T08:10:57.526Z,98544.91
2023-05-14T08:13:24.280Z,98526.50
2023-05-14T08:15:51.330Z,98500.72
2023-05-14T08:18:18.039Z,98543.78
2023-05-14T08:20:44.667Z,98536.03
2023-05-14T08:23:11.406Z,98509.28
2023-05-14T08:25:38.074Z,98542.63
2023-05-14T08:28:04.943Z,98555.69
2023-05-14T08:30:31.630Z,98535.91
2023-05-14T08:32:58.931Z,98546.16
2023-05-14T08:35:25.782Z,98538.16
2023-05-14T08:37:52.568Z,98505.16
2023-05-14T08:40:19.409Z,98523.44
2023-05-14T08:42:47.568Z,98540.13
2023-05-14T08:45:19.819Z,98533.47
2023-05-14T08:47:51.140Z,98531.06
2023-05-14T08:50:21.916Z,98525.53
2023-05-14T08:52:49.977Z,98520.72
2023-05-14T08:55:16.670Z,98521.09
2023-05-14T08:57:43.387Z,98523.31
2023-05-14T09:00:13.448Z,98505.38
2023-05-14T09:02:41.648Z,98502.22
2023-05-14T09:05:09.304Z,98483.09
2023-05-14T09:07:36.506Z,98510.38
2023-05-14T09:10:04.002Z,98498.19
2023-05-14T09:12:31.188Z,98495.50
2023-05-14T09:14:57.975Z,98484.13
2023-05-14T09:17:27.601Z,98470.38
2023-05-14T09:19:54.689Z,98490.41
2023-05-14T09:22:21.589Z,98473.63
2023-05-14T09:25:03.501Z,98496.91
2023-05-14T09:27:31.906Z,98468.69
2023-05-14T09:30:10.189Z,98503.78
2023-05-14T09:32:38.812Z,98486.06
2023-05-14T09:35:19.078Z,98463.06
2023-05-14T09:37:51.178Z,98450.81
2023-05-14T09:40:20.280Z,98476.81
2023-05-14T09:42:49.012Z,98464.22
2023-05-14T09:45:16.891Z,98479.91
2023-05-14T09:47:45.163Z,98458.06
2023-05-14T09:50:12.262Z,98464.41
2023-05-14T09:52:39.510Z,98468.88
2023-05-14T09:55:06.985Z,98454.88
2023-05-14T09:57:34.561Z,98472.09
2023-05-14T10:00:01.410Z,98444.00
2023-05-14T10:02:41.307Z,98434.34
2023-05-14T10:05:08.929Z,98455.50
2023-05-14T10:07:41.652Z,98457.56
2023-05-14T10:10:13.707Z,98450.59
2023-05-14T10:12:40.872Z,98437.84
2023-05-14T10:15:16.660Z,98464.69
2023-05-14T10:17:49.945Z,98449.00
2023-05-14T10:20:17.579Z,98458.81
2023-05-14T10:22:44.398Z,98421.84
2023-05-14T10:25:11.557Z,98443.72
2023-05-14T10:27:38.985Z,98437.09
2023-05-14T10:30:10.473Z,98429.22
2023-05-14T10:32:38.109Z,98433.66
2023-05-14T10:35:17.145Z,98417.66
2023-05-14T10:37:45.082Z,98408.38
2023-05-14T10:40:13.331Z,98427.59
2023-05-14T10:42:40.928Z,98409.25
2023-05-14T10:45:09.255Z,98414.03
2023-05-14T10:47:37.371Z,98411.22
2023-05-14T10:50:06.117Z,98408.44
2023-05-14T10:52:33.947Z,98407.09
2023-05-14T10:55:07.791Z,98385.72
2023-05-14T10:57:36.579Z,98417.16
2023-05-14T11:00:03.789Z,98405.34
2023-05-14T11:02:37.665Z,98387.44
2023-05-14T11:05:08.241Z,98387.78
2023-05-14T11:07:37.921Z,98373.03
2023-05-14T11:10:09.350Z,98380.31
2023-05-14T11:12:38.478Z,98368.34
2023-05-14T11:15:11.049Z,98365.22
2023-05-14T11:17:40.305Z,98363.06
2023-05-14T11:20:08.800Z,98356.47
2023-05-14T11:22:36.806Z,98361.13
2023-05-14T11:25:04.393Z,98337.59
2023-05-14T11:27:34.236Z,98340.59
2023-05-14T11:30:03.961Z,98332.44
2023-05-14T11:32:35.380Z,98330.75
2023-05-14T11:35:02.354Z,98321.97
2023-05-14T11:37:30.659Z,98296.63
2023-05-14T11:40:01.333Z,98313.38
2023-05-14T11:42:28.171Z,98326.91
2023-05-14T11:44:54.828Z,98305.06
2023-05-14T11:47:22.251Z,98306.44
2023-05-14T11:49:49.362Z,98313.59
2023-05-14T11:52:19.352Z,98319.75
2023-05-14T11:54:46.344Z,98306.91
2023-05-14T11:57:16.392Z,98311.63
2023-05-14T11:59:43.328Z,98276.50
2023-05-14T12:02:15.118Z,98299.22
2023-05-14T12:04:42.886Z,98283.63
2023-05-14T12:07:11.929Z,98278.66
2023-05-14T12:09:45.074Z,98274.59
2023-05-14T12:12:12.759Z,98268.72
2023-05-14T12:14:42.670Z,98270.31
2023-05-14T12:17:15.115Z,98263.78
2023-05-14T12:19:43.615Z,98257.75
2023-05-14T12:22:11.735Z,98258.66
2023-05-14T12:24:39.273Z,98237.41
2023-05-14T12:27:07.442Z,98261.97
2023-05-14T12:29:40.909Z,98237.81
2023-05-14T12:32:09.404Z,98233.81
2023-05-14T12:34:37.687Z,98234.94
2023-05-14T12:37:05.500Z,98217.09
2023-05-14T12:39:34.165Z,98241.78
2023-05-14T12:42:01.555Z,98230.19
2023-05-14T12:44:28.355Z,98233.25
2023-05-14T12:46:55.229Z,98232.63
2023-05-14T12:49:21.841Z,98197.28
2023-05-14T12:51:48.777Z,98213.41
2023-05-14T12:54:16.776Z,98215.63
2023-05-14T12:56:43.450Z,98200.03
2023-05-14T12:59:10.607Z,98192.56
2023-05-14T13:01:38.245Z,98195.56
2023-05-14T13:04:05.814Z,98210.38
2023-05-14T13:06:32.765Z,98200.78
2023-05-14T13:09:01.776Z,98191.00
2023-05-14T13:11:30.320Z,98172.09
2023-05-14T13:13:57.392Z,98173.00
2023-05-14T13:16:25.457Z,98173.00
2023-05-14T13:18:52.179Z,98154.41
2023-05-14T13:21:22.403Z,98175.50
2023-05-14T13:23:49.225Z,98162.19
2023-05-14T13:26:16.203Z,98160.94
2023-05-14T13:28:43.219Z,98156.56
2023-05-14T13:31:16.897Z,98147.16
2023-05-14T13:33:44.552Z,98158.53
2023-05-14T13:36:14.468Z,98153.81
2023-05-14T13:38:41.482Z,98131.72
2023-05-14T13:41:08.482Z,98148.31
2023-05-14T13:43:35.841Z,98153.50
2023-05-14T13:46:05.306Z,98130.44
2023-05-14T13:48:32.288Z,98140.22
2023-05-14T13:50:59.294Z,98134.25
2023-05-14T13:53:26.125Z,98122.34
2023-05-14T13:56:00.820Z,98130.91
2023-05-14T13:58:28.642Z,98113.44
2023-05-14T14:00:55.393Z,98116.44
2023-05-14T14:03:22.216Z,98124.50
2023-05-14T14:05:48.934Z,98107.97
2023-05-14T14:08:23.294Z,98109.78
2023-05-14T14:10:52.151Z,98117.50
2023-05-14T14:13:18.795Z,98097.44
2023-05-14T14:15:45.647Z,98101.00
2023-05-14T14:18:12.405Z,98101.59
2023-05-14T14:20:39.032Z,98089.88
2023-05-14T14:23:05.758Z,98084.56
2023-05-14T14:25:32.402Z,98091.31
2023-05-14T14:27:59.114Z,98103.56
2023-05-14T14:30:25.760Z,98075.00
2023-05-14T14:32:52.533Z,98091.88
2023-05-14T14:35:20.026Z,98072.66
2023-05-14T14:37:52.203Z,98076.75
2023-05-14T14:40:19.130Z,98077.84
2023-05-14T14:42:45.795Z,98078.94
2023-05-14T14:45:12.715Z,98091.91
2023-05-14T14:47:43.996Z,98070.47
2023-05-14T14:50:11.213Z,98089.16
2023-05-14T14:52:38.040Z,98068.09
2023-05-14T14:55:05.182Z,98085.81
2023-05-14T14:57:31.909Z,98072.56
2023-05-14T14:59:59.822Z,98094.09
2023-05-14T15:02:27.668Z,98075.84
2023-05-14T15:04:54.785Z,98082.19
2023-05-14T15:07:22.176Z,98059.97
2023-05-14T15:09:49.214Z,98066.84
2023-05-14T15:12:17.094Z,98062.47
2023-05-14T15:14:43.714Z,98065.19
2023-05-14T15:17:10.627Z,98070.25
2023-05-14T15:19:37.340Z,98054.19
2023-05-14T15:22:04.523Z,98049.97
2023-05-14T15:24:31.162Z,98026.22
2023-05-14T15:26:57.777Z,98033.28
2023-05-14T15:29:24.385Z,98042.09
2023-05-14T15:31:51.142Z,98059.91
2023-05-14T15:34:17.932Z,98020.56
2023-05-14T15:36:44.462Z,98043.50
2023-05-14T15:39:11.265Z,98058.22
2023-05-14T15:41:38.058Z,98050.84
2023-05-14T15:44:04.970Z,98055.28
2023-05-14T15:46:32.226Z,98040.88
2023-05-14T15:48:59.102Z,98036.00
2023-05-14T15:51:25.640Z,98031.88
2023-05-14T15:53:55.475Z,98039.00
2023-05-14T15:56:22.893Z,98014.34
2023-05-14T15:58:49.829Z,98024.31
2023-05-14T16:01:16.712Z,98016.66
2023-05-14T16:03:43.668Z,98035.22
2023-05-14T16:06:11.607Z,98034.13
2023-05-14T16:08:38.562Z,98038.97
2023-05-14T16:11:06.319Z,98031.72
2023-05-14T16:13:33.348Z,98043.13
2023-05-14T16:16:00.236Z,98051.19
2023-05-14T16:18:26.954Z,98058.81
2023-05-14T16:20:53.643Z,98054.28
2023-05-14T16:23:20.401Z,98059.19
2023-05-14T16:25:47.195Z,98055.91
2023-05-14T16:28:13.926Z,98058.34
2023-05-14T16:30:40.470Z,98047.19
2023-05-14T16:33:07.442Z,98074.19
2023-05-14T16:35:34.184Z,98032.97
2023-05-14T16:38:01.602Z,98061.38
2023-05-14T16:40:28.375Z,98039.09
2023-05-14T16:42:54.911Z,98066.34
2023-05-14T16:45:21.704Z,98066.09
2023-05-14T16:47:48.755Z,98065.91
2023-05-14T16:50:15.421Z,98072.19
2023-05-14T16:52:42.109Z,98052.44
2023-05-14T16:55:09.217Z,98028.34
2023-05-14T16:57:35.829Z,98023.19
2023-05-14T17:00:05.977Z,98043.31
2023-05-14T17:02:33.748Z,98027.09
2023-05-14T17:05:00.576Z,98022.16
2023-05-14T17:07:27.423Z,98029.25
2023-05-14T17:09:54.131Z,98013.19
2023-05-14T17:12:20.875Z,98025.38
2023-05-14T17:14:47.501Z,98025.34
2023-05-14T17:17:14.708Z,98042.31
2023-05-14T17:19:42.408Z,98036.38
2023-05-14T17:22:09.117Z,98022.16
2023-05-14T17:24:36.503Z,98018.03
2023-05-14T17:27:03.450Z,98034.84
2023-05-14T17:29:30.122Z,98044.25
2023-05-14T17:31:56.972Z,98014.31
2023-05-14T17:34:24.160Z,98045.09
2023-05-14T17:36:50.962Z,98061.22
2023-05-14T17:39:17.600Z,98062.69
2023-05-14T17:41:44.303Z,98054.09
2023-05-14T17:44:12.820Z,98030.44
2023-05-14T17:46:41.541Z,98048.75
2023-05-14T17:49:08.352Z,98034.94
2023-05-14T17:51:34.993Z,98023.63
2023-05-14T17:54:01.843Z,98038.75
2023-05-14T17:56:29.578Z,98038.25
2023-05-14T17:58:56.257Z,98036.97
2023-05-14T18:01:22.969Z,98045.94
2023-05-14T18:03:49.889Z,98038.19
2023-05-14T18:06:16.868Z,98042.97
2023-05-14T18:08:43.656Z,98048.06
2023-05-14T18:11:10.199Z,98053.06
2023-05-14T18:13:36.818Z,98073.25
2023-05-14T18:16:03.836Z,98068.63
2023-05-14T18:18:30.890Z,98070.59
2023-05-14T18:20:58.181Z,98067.19
2023-05-14T18:23:24.830Z,98076.56
2023-05-14T18:25:51.536Z,98063.31
2023-05-14T18:28:18.958Z,98079.22
2023-05-14T18:30:45.637Z,98070.41
2023-05-14T18:33:12.431Z,98066.06
2023-05-14T18:35:39.241Z,98081.94
2023-05-14T18:38:07.870Z,98079.16
2023-05-14T18:40:34.797Z,98080.78
2023-05-14T18:43:01.434Z,98101.19
2023-05-14T18:45:28.106Z,98089.69
2023-05-14T18:47:55.255Z,98094.38
2023-05-14T18:50:21.883Z,98093.75
2023-05-14T18:52:48.512Z,98116.13
2023-05-14T18:55:15.245Z,98118.97
2023-05-14T18:57:41.887Z,98115.59
2023-05-14T19:00:09.069Z,98108.22
2023-05-14T19:02:36.059Z,98120.84
2023-05-14T19:05:02.763Z,98125.44
2023-05-14T19:07:30.414Z,98122.91
2023-05-14T19:09:57.028Z,98124.72
2023-05-14T19:12:23.789Z,98136.75
2023-05-14T19:14:50.565Z,98132.81
2023-05-14T19:17:18.591Z,98152.47
2023-05-14T19:19:47.008Z,98156.50
2023-05-14T19:22:13.671Z,98144.94
2023-05-14T19:24:40.408Z,98146.25
2023-05-14T19:27:07.756Z,98152.81
2023-05-14T19:29:36.655Z,98147.75
2023-05-14T19:32:04.706Z,98157.94
2023-05-14T19:34:31.575Z,98160.84
2023-05-14T19:36:58.208Z,98166.34
2023-05-14T19:39:24.905Z,98163.31
2023-05-14T19:41:51.512Z,98188.25
2023-05-14T19:44:18.134Z,98169.16
2023-05-14T19:46:45.129Z,98162.00
2023-05-14T19:49:12.188Z,98174.00
2023-05-14T19:51:39.380Z,98173.09
2023-05-14T19:54:06.665Z,98172.19
2023-05-14T19:56:33.442Z,98189.16
2023-05-14T19:58:59.981Z,98162.78
2023-05-14T20:01:26.852Z,98199.09
2023-05-14T20:03:53.475Z,98194.41
2023-05-14T20:06:20.331Z,98190.31
2023-05-14T20:08:46.919Z,98200.56
2023-05-14T20:11:15.524Z,98194.59
2023-05-14T20:13:42.108Z,98209.34
2023-05-14T20:16:08.792Z,98211.22
2023-05-14T20:18:35.541Z,98205.63
2023-05-14T20:21:02.176Z,98213.97
2023-05-14T20:23:28.742Z,98207.06
2023-05-14T20:25:55.715Z,98197.97
2023-05-14T20:28:22.314Z,98177.75
2023-05-14T20:30:49.008Z,98162.56
2023-05-14T20:33:15.999Z,98160.94
2023-05-14T20:35:44.019Z,98153.53
2023-05-14T20:38:12.737Z,98167.66
2023-05-14T20:40:40.004Z,98168.41
2023-05-14T20:43:06.577Z,98166.25
2023-05-14T20:45:33.404Z,98172.75
2023-05-14T20:47:59.979Z,98172.84
2023-05-14T20:50:27.792Z,98180.56
2023-05-14T20:52:55.141Z,98174.69
2023-05-14T20:55:21.781Z,98187.84
2023-05-14T20:57:49.643Z,98179.56
2023-05-14T21:00:16.672Z,98175.09
2023-05-14T21:02:43.519Z,98164.13
2023-05-14T21:05:10.370Z,98167.06
2023-05-14T21:07:37.360Z,98169.22
2023-05-14T21:10:04.605Z,98165.09
2023-05-14T21:12:31.229Z,98175.44
2023-05-14T21:14:57.796Z,98178.16
2023-05-14T21:17:24.661Z,98173.56
2023-05-14T21:19:51.435Z,98164.28
2023-05-14T21:22:18.103Z,98165.78
2023-05-14T21:24:44.796Z,98173.91
2023-05-14T21:27:11.573Z,98166.84
2023-05-14T21:29:39.616Z,98152.69
2023-05-14T21:32:06.911Z,98164.47
2023-05-14T21:34:33.766Z,98181.06
2023-05-14T21:37:00.803Z,98166.31
2023-05-14T21:39:27.464Z,98148.88
2023-05-14T21:41:54.127Z,98158.66
2023-05-14T21:44:21.779Z,98162.69
2023-05-14T21:46:48.358Z,98163.81
2023-05-14T21:49:14.905Z,98154.13
2023-05-14T21:51:42.686Z,98156.03
2023-05-14T21:54:09.706Z,98163.50
2023-05-14T21:56:37.212Z,98165.38
2023-05-14T21:59:03.935Z,98147.59
2023-05-14T22:01:31.639Z,98140.16
2023-05-14T22:03:59.144Z,98152.69
2023-05-14T22:06:25.852Z,98146.19
2023-05-14T22:08:52.457Z,98158.03
2023-05-14T22:11:19.042Z,98136.97
2023-05-14T22:13:45.609Z,98151.19
2023-05-14T22:16:13.691Z,98143.84
2023-05-14T22:18:41.599Z,98145.72
2023-05-14T22:21:08.417Z,98137.94
2023-05-14T22:23:35.158Z,98141.28
2023-05-14T22:26:01.788Z,98136.28
2023-05-14T22:28:28.470Z,98136.78
2023-05-14T22:30:56.480Z,98123.81
2023-05-14T22:33:23.230Z,98104.31
2023-05-14T22:35:49.871Z,98112.34
2023-05-14T22:38:16.449Z,98112.56
2023-05-14T22:40:43.164Z,98128.94
2023-05-14T22:43:09.762Z,98134.97
2023-05-14T22:45:36.426Z,98120.81
2023-05-14T22:48:03.160Z,98136.56
2023-05-14T22:50:29.784Z,98133.09
2023-05-14T22:52:56.392Z,98118.38
2023-05-14T22:55:23.459Z,98128.81
2023-05-14T22:57:50.610Z,98139.97
2023-05-14T23:00:17.489Z,98136.91
2023-05-14T23:02:44.394Z,98098.03
2023-05-14T23:05:11.080Z,98139.38
2023-05-14T23:07:37.785Z,98109.88
2023-05-14T23:10:05.105Z,98126.91
2023-05-14T23:12:31.757Z,98137.25
2023-05-14T23:14:59.146Z,98138.06
2023-05-14T23:17:25.960Z,98128.81
2023-05-14T23:19:52.918Z,98137.13
2023-05-14T23:22:20.322Z,98135.72
2023-05-14T23:24:46.899Z,98122.09
2023-05-14T23:27:13.532Z,98136.56
2023-05-14T23:29:40.261Z,98136.34
2023-05-14T23:32:07.389Z,98128.94
2023-05-14T23:34:34.665Z,98123.72
2023-05-14T23:37:01.482Z,98125.88
2023-05-14T23:39:28.160Z,98123.63
2023-05-14T23:41:54.773Z,98117.06
2023-05-14T23:44:21.496Z,98111.47
2023-05-14T23:46:48.169Z,98112.41
2023-05-14T23:49:14.933Z,98141.63
2023-05-14T23:51:41.595Z,98134.06
2023-05-14T23:54:08.321Z,98127.25
2023-05-14T23:56:35.976Z,98124.81
2023-05-14T23:59:03.592Z,98126.63
